sensor_id;sensor_type;location;lat;lon;timestamp;P1;durP1;ratioP1;P2;durP2;ratioP2
16480;SDS011;44634;54.110;12.138;2022-10-19T00:00:49;5.60;;;1.10;;
16480;SDS011;44634;54.110;12.138;2022-10-19T00:03:17;4.70;;;1.57;;
16480;SDS011;44634;54.110;12.138;2022-10-19T00:05:49;3.13;;;1.33;;
16480;SDS011;44634;54.110;12.138;2022-10-19T00:08:17;2.93;;;1.13;;
16480;SDS011;44634;54.110;12.138;2022-10-19T00:10:45;3.07;;;1.23;;
16480;SDS011;44634;54.110;12.138;2022-10-19T00:13:13;2.40;;;1.00;;
16480;SDS011;44634;54.110;12.138;2022-10-19T00:15:41;3.60;;;1.73;;
16480;SDS011;44634;54.110;12.138;2022-10-19T00:18:10;5.43;;;1.40;;
16480;SDS011;44634;54.110;12.138;2022-10-19T00:20:38;3.90;;;1.53;;
16480;SDS011;44634;54.110;12.138;2022-10-19T00:23:08;10.00;;;1.33;;
16480;SDS011;44634;54.110;12.138;2022-10-19T00:25:36;4.30;;;1.90;;
16480;SDS011;44634;54.110;12.138;2022-10-19T00:28:04;5.27;;;1.27;;
16480;SDS011;44634;54.110;12.138;2022-10-19T00:30:34;5.10;;;1.43;;
16480;SDS011;44634;54.110;12.138;2022-10-19T00:33:03;2.80;;;1.17;;
16480;SDS011;44634;54.110;12.138;2022-10-19T00:35:31;3.33;;;1.20;;
16480;SDS011;44634;54.110;12.138;2022-10-19T00:37:58;2.63;;;1.00;;
16480;SDS011;44634;54.110;12.138;2022-10-19T00:40:27;1.27;;;0.87;;
16480;SDS011;44634;54.110;12.138;2022-10-19T00:42:56;2.27;;;0.63;;
16480;SDS011;44634;54.110;12.138;2022-10-19T00:45:23;2.30;;;0.87;;
16480;SDS011;44634;54.110;12.138;2022-10-19T00:47:52;2.23;;;0.60;;
16480;SDS011;44634;54.110;12.138;2022-10-19T00:50:21;1.53;;;0.53;;
16480;SDS011;44634;54.110;12.138;2022-10-19T00:52:48;1.90;;;0.70;;
16480;SDS011;44634;54.110;12.138;2022-10-19T00:55:16;0.60;;;0.50;;
16480;SDS011;44634;54.110;12.138;2022-10-19T00:57:46;1.00;;;0.90;;
16480;SDS011;44634;54.110;12.138;2022-10-19T01:00:14;1.10;;;0.80;;
16480;SDS011;44634;54.110;12.138;2022-10-19T01:02:42;0.93;;;0.60;;
16480;SDS011;44634;54.110;12.138;2022-10-19T01:05:09;2.27;;;0.97;;
16480;SDS011;44634;54.110;12.138;2022-10-19T01:07:37;2.40;;;0.90;;
16480;SDS011;44634;54.110;12.138;2022-10-19T01:10:06;1.43;;;0.97;;
16480;SDS011;44634;54.110;12.138;2022-10-19T01:12:39;0.73;;;0.73;;
16480;SDS011;44634;54.110;12.138;2022-10-19T01:15:25;1.20;;;0.90;;
16480;SDS011;44634;54.110;12.138;2022-10-19T01:18:01;3.97;;;1.30;;
16480;SDS011;44634;54.110;12.138;2022-10-19T01:20:42;4.07;;;1.33;;
16480;SDS011;44634;54.110;12.138;2022-10-19T01:23:49;1.07;;;0.83;;
16480;SDS011;44634;54.110;12.138;2022-10-19T01:26:45;1.40;;;1.07;;
16480;SDS011;44634;54.110;12.138;2022-10-19T01:30:00;3.93;;;1.20;;
16480;SDS011;44634;54.110;12.138;2022-10-19T01:32:32;2.27;;;1.27;;
16480;SDS011;44634;54.110;12.138;2022-10-19T01:35:09;1.47;;;0.90;;
16480;SDS011;44634;54.110;12.138;2022-10-19T01:37:45;3.33;;;1.20;;
16480;SDS011;44634;54.110;12.138;2022-10-19T01:40:18;3.07;;;0.90;;
16480;SDS011;44634;54.110;12.138;2022-10-19T01:42:54;7.10;;;1.10;;
16480;SDS011;44634;54.110;12.138;2022-10-19T01:45:29;0.87;;;0.83;;
16480;SDS011;44634;54.110;12.138;2022-10-19T01:48:06;2.43;;;0.97;;
16480;SDS011;44634;54.110;12.138;2022-10-19T01:50:39;1.93;;;0.70;;
16480;SDS011;44634;54.110;12.138;2022-10-19T01:53:12;3.23;;;1.03;;
16480;SDS011;44634;54.110;12.138;2022-10-19T01:55:42;2.20;;;1.23;;
16480;SDS011;44634;54.110;12.138;2022-10-19T01:58:15;2.40;;;0.80;;
16480;SDS011;44634;54.110;12.138;2022-10-19T02:00:47;8.27;;;1.30;;
16480;SDS011;44634;54.110;12.138;2022-10-19T02:03:19;3.07;;;1.00;;
16480;SDS011;44634;54.110;12.138;2022-10-19T02:05:49;3.13;;;1.10;;
16480;SDS011;44634;54.110;12.138;2022-10-19T02:08:19;2.87;;;1.33;;
16480;SDS011;44634;54.110;12.138;2022-10-19T02:10:53;1.70;;;1.00;;
16480;SDS011;44634;54.110;12.138;2022-10-19T02:13:23;3.17;;;0.90;;
16480;SDS011;44634;54.110;12.138;2022-10-19T02:15:54;2.97;;;0.80;;
16480;SDS011;44634;54.110;12.138;2022-10-19T02:18:26;1.67;;;1.07;;
16480;SDS011;44634;54.110;12.138;2022-10-19T02:20:59;0.90;;;0.90;;
16480;SDS011;44634;54.110;12.138;2022-10-19T02:23:28;4.30;;;1.33;;
16480;SDS011;44634;54.110;12.138;2022-10-19T02:25:56;9.20;;;1.10;;
16480;SDS011;44634;54.110;12.138;2022-10-19T02:28:25;2.87;;;1.07;;
16480;SDS011;44634;54.110;12.138;2022-10-19T02:30:56;1.57;;;0.90;;
16480;SDS011;44634;54.110;12.138;2022-10-19T02:33:25;1.30;;;1.20;;
16480;SDS011;44634;54.110;12.138;2022-10-19T02:35:53;2.17;;;1.10;;
16480;SDS011;44634;54.110;12.138;2022-10-19T02:38:22;2.03;;;1.00;;
16480;SDS011;44634;54.110;12.138;2022-10-19T02:40:53;4.13;;;1.50;;
16480;SDS011;44634;54.110;12.138;2022-10-19T02:43:26;3.47;;;1.70;;
16480;SDS011;44634;54.110;12.138;2022-10-19T02:45:58;6.50;;;1.30;;
16480;SDS011;44634;54.110;12.138;2022-10-19T02:48:31;2.50;;;1.27;;
16480;SDS011;44634;54.110;12.138;2022-10-19T02:51:00;3.20;;;1.87;;
16480;SDS011;44634;54.110;12.138;2022-10-19T02:53:28;5.73;;;2.10;;
16480;SDS011;44634;54.110;12.138;2022-10-19T02:55:56;5.43;;;1.70;;
16480;SDS011;44634;54.110;12.138;2022-10-19T02:58:24;5.47;;;1.57;;
16480;SDS011;44634;54.110;12.138;2022-10-19T03:00:51;9.03;;;2.20;;
16480;SDS011;44634;54.110;12.138;2022-10-19T03:03:21;9.50;;;2.00;;
16480;SDS011;44634;54.110;12.138;2022-10-19T03:05:48;10.47;;;2.03;;
16480;SDS011;44634;54.110;12.138;2022-10-19T03:08:17;5.20;;;1.80;;
16480;SDS011;44634;54.110;12.138;2022-10-19T03:10:45;6.87;;;1.83;;
16480;SDS011;44634;54.110;12.138;2022-10-19T03:13:12;7.00;;;1.77;;
16480;SDS011;44634;54.110;12.138;2022-10-19T03:15:40;9.57;;;2.00;;
16480;SDS011;44634;54.110;12.138;2022-10-19T03:18:08;4.73;;;2.03;;
16480;SDS011;44634;54.110;12.138;2022-10-19T03:20:37;8.70;;;2.37;;
16480;SDS011;44634;54.110;12.138;2022-10-19T03:23:05;6.77;;;2.17;;
16480;SDS011;44634;54.110;12.138;2022-10-19T03:25:32;4.97;;;1.83;;
16480;SDS011;44634;54.110;12.138;2022-10-19T03:28:00;10.60;;;2.47;;
16480;SDS011;44634;54.110;12.138;2022-10-19T03:30:28;7.97;;;2.07;;
16480;SDS011;44634;54.110;12.138;2022-10-19T03:32:56;5.80;;;1.97;;
16480;SDS011;44634;54.110;12.138;2022-10-19T03:35:23;8.80;;;2.40;;
16480;SDS011;44634;54.110;12.138;2022-10-19T03:37:52;6.77;;;2.00;;
16480;SDS011;44634;54.110;12.138;2022-10-19T03:40:20;6.93;;;1.80;;
16480;SDS011;44634;54.110;12.138;2022-10-19T03:42:48;10.23;;;2.87;;
16480;SDS011;44634;54.110;12.138;2022-10-19T03:45:16;11.40;;;2.33;;
16480;SDS011;44634;54.110;12.138;2022-10-19T03:47:47;4.80;;;1.67;;
16480;SDS011;44634;54.110;12.138;2022-10-19T03:50:15;6.07;;;1.80;;
16480;SDS011;44634;54.110;12.138;2022-10-19T03:52:43;8.50;;;2.03;;
16480;SDS011;44634;54.110;12.138;2022-10-19T03:55:12;8.77;;;2.20;;
16480;SDS011;44634;54.110;12.138;2022-10-19T03:57:40;8.37;;;2.77;;
16480;SDS011;44634;54.110;12.138;2022-10-19T04:00:09;7.00;;;2.27;;
16480;SDS011;44634;54.110;12.138;2022-10-19T04:02:37;10.87;;;2.57;;
16480;SDS011;44634;54.110;12.138;2022-10-19T04:05:06;12.43;;;3.00;;
16480;SDS011;44634;54.110;12.138;2022-10-19T04:07:34;4.57;;;2.13;;
16480;SDS011;44634;54.110;12.138;2022-10-19T04:10:02;6.67;;;2.47;;
16480;SDS011;44634;54.110;12.138;2022-10-19T04:12:31;9.97;;;2.33;;
16480;SDS011;44634;54.110;12.138;2022-10-19T04:14:59;6.73;;;2.47;;
16480;SDS011;44634;54.110;12.138;2022-10-19T04:17:27;10.53;;;2.60;;
16480;SDS011;44634;54.110;12.138;2022-10-19T04:19:54;10.00;;;2.07;;
16480;SDS011;44634;54.110;12.138;2022-10-19T04:22:22;6.30;;;2.23;;
16480;SDS011;44634;54.110;12.138;2022-10-19T04:24:50;4.47;;;2.07;;
16480;SDS011;44634;54.110;12.138;2022-10-19T04:27:18;5.07;;;2.40;;
16480;SDS011;44634;54.110;12.138;2022-10-19T04:29:47;9.03;;;2.70;;
16480;SDS011;44634;54.110;12.138;2022-10-19T04:32:14;11.90;;;2.70;;
16480;SDS011;44634;54.110;12.138;2022-10-19T04:34:42;10.97;;;2.60;;
16480;SDS011;44634;54.110;12.138;2022-10-19T04:37:10;11.43;;;3.13;;
16480;SDS011;44634;54.110;12.138;2022-10-19T04:39:38;8.97;;;2.47;;
16480;SDS011;44634;54.110;12.138;2022-10-19T04:42:08;9.03;;;2.77;;
16480;SDS011;44634;54.110;12.138;2022-10-19T04:44:36;8.00;;;2.40;;
16480;SDS011;44634;54.110;12.138;2022-10-19T04:47:05;9.83;;;2.50;;
16480;SDS011;44634;54.110;12.138;2022-10-19T04:49:33;8.53;;;2.57;;
16480;SDS011;44634;54.110;12.138;2022-10-19T04:52:00;7.07;;;2.23;;
16480;SDS011;44634;54.110;12.138;2022-10-19T04:54:28;6.70;;;2.03;;
16480;SDS011;44634;54.110;12.138;2022-10-19T04:56:56;6.77;;;2.20;;
16480;SDS011;44634;54.110;12.138;2022-10-19T04:59:24;4.47;;;1.60;;
16480;SDS011;44634;54.110;12.138;2022-10-19T05:01:52;9.20;;;2.50;;
16480;SDS011;44634;54.110;12.138;2022-10-19T05:04:21;4.77;;;1.60;;
16480;SDS011;44634;54.110;12.138;2022-10-19T05:06:48;6.30;;;2.37;;
16480;SDS011;44634;54.110;12.138;2022-10-19T05:09:16;4.70;;;2.17;;
16480;SDS011;44634;54.110;12.138;2022-10-19T05:11:44;8.60;;;1.87;;
16480;SDS011;44634;54.110;12.138;2022-10-19T05:14:12;4.80;;;1.90;;
16480;SDS011;44634;54.110;12.138;2022-10-19T05:16:40;5.17;;;1.60;;
16480;SDS011;44634;54.110;12.138;2022-10-19T05:19:10;5.37;;;1.60;;
16480;SDS011;44634;54.110;12.138;2022-10-19T05:21:40;5.90;;;1.90;;
16480;SDS011;44634;54.110;12.138;2022-10-19T05:24:09;6.60;;;1.80;;
16480;SDS011;44634;54.110;12.138;2022-10-19T05:26:38;3.37;;;2.00;;
16480;SDS011;44634;54.110;12.138;2022-10-19T05:29:09;5.27;;;1.30;;
16480;SDS011;44634;54.110;12.138;2022-10-19T05:31:38;3.57;;;1.50;;
16480;SDS011;44634;54.110;12.138;2022-10-19T05:34:06;2.23;;;1.17;;
16480;SDS011;44634;54.110;12.138;2022-10-19T05:36:34;4.90;;;2.30;;
16480;SDS011;44634;54.110;12.138;2022-10-19T05:39:05;8.60;;;3.50;;
16480;SDS011;44634;54.110;12.138;2022-10-19T05:41:35;10.67;;;3.77;;
16480;SDS011;44634;54.110;12.138;2022-10-19T05:44:03;5.77;;;3.40;;
16480;SDS011;44634;54.110;12.138;2022-10-19T05:46:32;3.67;;;1.57;;
16480;SDS011;44634;54.110;12.138;2022-10-19T05:49:01;4.67;;;1.63;;
16480;SDS011;44634;54.110;12.138;2022-10-19T05:51:28;5.33;;;1.30;;
16480;SDS011;44634;54.110;12.138;2022-10-19T05:53:56;2.93;;;1.20;;
16480;SDS011;44634;54.110;12.138;2022-10-19T05:56:26;4.20;;;1.27;;
16480;SDS011;44634;54.110;12.138;2022-10-19T05:58:56;4.93;;;1.60;;
16480;SDS011;44634;54.110;12.138;2022-10-19T06:01:24;7.57;;;2.23;;
16480;SDS011;44634;54.110;12.138;2022-10-19T06:03:54;2.30;;;1.30;;
16480;SDS011;44634;54.110;12.138;2022-10-19T06:06:23;5.33;;;1.60;;
16480;SDS011;44634;54.110;12.138;2022-10-19T06:08:52;1.33;;;1.20;;
16480;SDS011;44634;54.110;12.138;2022-10-19T06:11:22;3.47;;;1.50;;
16480;SDS011;44634;54.110;12.138;2022-10-19T06:13:54;3.17;;;1.80;;
16480;SDS011;44634;54.110;12.138;2022-10-19T06:16:23;3.53;;;1.10;;
16480;SDS011;44634;54.110;12.138;2022-10-19T06:18:52;4.30;;;1.30;;
16480;SDS011;44634;54.110;12.138;2022-10-19T06:21:21;2.73;;;1.60;;
16480;SDS011;44634;54.110;12.138;2022-10-19T06:23:51;5.63;;;1.43;;
16480;SDS011;44634;54.110;12.138;2022-10-19T06:26:19;2.10;;;0.83;;
16480;SDS011;44634;54.110;12.138;2022-10-19T06:28:47;3.97;;;1.43;;
16480;SDS011;44634;54.110;12.138;2022-10-19T06:31:17;3.17;;;1.40;;
16480;SDS011;44634;54.110;12.138;2022-10-19T06:33:45;3.33;;;1.40;;
16480;SDS011;44634;54.110;12.138;2022-10-19T06:36:15;5.30;;;1.60;;
16480;SDS011;44634;54.110;12.138;2022-10-19T06:38:44;3.20;;;1.30;;
16480;SDS011;44634;54.110;12.138;2022-10-19T06:41:12;5.10;;;1.20;;
16480;SDS011;44634;54.110;12.138;2022-10-19T06:43:40;5.17;;;1.50;;
16480;SDS011;44634;54.110;12.138;2022-10-19T06:46:10;4.47;;;1.27;;
16480;SDS011;44634;54.110;12.138;2022-10-19T06:48:41;6.37;;;2.17;;
16480;SDS011;44634;54.110;12.138;2022-10-19T06:51:09;7.73;;;4.00;;
16480;SDS011;44634;54.110;12.138;2022-10-19T06:53:38;3.60;;;2.10;;
16480;SDS011;44634;54.110;12.138;2022-10-19T06:56:06;1.57;;;1.40;;
16480;SDS011;44634;54.110;12.138;2022-10-19T06:58:35;6.00;;;1.43;;
16480;SDS011;44634;54.110;12.138;2022-10-19T07:01:03;2.33;;;1.30;;
16480;SDS011;44634;54.110;12.138;2022-10-19T07:03:33;2.50;;;1.20;;
16480;SDS011;44634;54.110;12.138;2022-10-19T07:06:04;2.53;;;1.13;;
16480;SDS011;44634;54.110;12.138;2022-10-19T07:08:34;9.30;;;2.87;;
16480;SDS011;44634;54.110;12.138;2022-10-19T07:11:03;3.80;;;1.40;;
16480;SDS011;44634;54.110;12.138;2022-10-19T07:13:32;20.83;;;5.10;;
16480;SDS011;44634;54.110;12.138;2022-10-19T07:16:01;14.83;;;4.87;;
16480;SDS011;44634;54.110;12.138;2022-10-19T07:18:35;3.10;;;1.60;;
16480;SDS011;44634;54.110;12.138;2022-10-19T07:21:06;1.67;;;1.57;;
16480;SDS011;44634;54.110;12.138;2022-10-19T07:23:35;5.63;;;1.53;;
16480;SDS011;44634;54.110;12.138;2022-10-19T07:26:05;1.73;;;1.20;;
16480;SDS011;44634;54.110;12.138;2022-10-19T07:28:37;3.50;;;1.20;;
16480;SDS011;44634;54.110;12.138;2022-10-19T07:31:06;3.40;;;1.50;;
16480;SDS011;44634;54.110;12.138;2022-10-19T07:33:35;5.70;;;1.50;;
16480;SDS011;44634;54.110;12.138;2022-10-19T07:36:05;2.83;;;1.10;;
16480;SDS011;44634;54.110;12.138;2022-10-19T07:38:35;2.63;;;1.20;;
16480;SDS011;44634;54.110;12.138;2022-10-19T07:41:04;3.83;;;1.27;;
16480;SDS011;44634;54.110;12.138;2022-10-19T07:43:33;1.77;;;1.20;;
16480;SDS011;44634;54.110;12.138;2022-10-19T07:46:02;9.13;;;6.50;;
16480;SDS011;44634;54.110;12.138;2022-10-19T07:48:31;3.40;;;3.10;;
16480;SDS011;44634;54.110;12.138;2022-10-19T07:51:00;1.63;;;1.40;;
16480;SDS011;44634;54.110;12.138;2022-10-19T07:53:29;3.77;;;1.97;;
16480;SDS011;44634;54.110;12.138;2022-10-19T07:56:01;1.93;;;1.10;;
16480;SDS011;44634;54.110;12.138;2022-10-19T07:58:30;4.00;;;1.37;;
16480;SDS011;44634;54.110;12.138;2022-10-19T08:00:58;1.07;;;1.03;;
16480;SDS011;44634;54.110;12.138;2022-10-19T08:03:27;1.13;;;1.00;;
16480;SDS011;44634;54.110;12.138;2022-10-19T08:06:16;2.10;;;1.10;;
16480;SDS011;44634;54.110;12.138;2022-10-19T08:08:46;3.10;;;1.40;;
16480;SDS011;44634;54.110;12.138;2022-10-19T08:11:16;2.63;;;1.00;;
16480;SDS011;44634;54.110;12.138;2022-10-19T08:13:45;2.20;;;1.10;;
16480;SDS011;44634;54.110;12.138;2022-10-19T08:16:20;1.00;;;0.87;;
16480;SDS011;44634;54.110;12.138;2022-10-19T08:18:50;1.00;;;0.90;;
16480;SDS011;44634;54.110;12.138;2022-10-19T08:21:19;1.90;;;1.10;;
16480;SDS011;44634;54.110;12.138;2022-10-19T08:23:48;2.17;;;1.10;;
16480;SDS011;44634;54.110;12.138;2022-10-19T08:26:16;1.90;;;0.90;;
16480;SDS011;44634;54.110;12.138;2022-10-19T08:28:43;1.00;;;1.00;;
16480;SDS011;44634;54.110;12.138;2022-10-19T08:31:12;3.83;;;1.30;;
16480;SDS011;44634;54.110;12.138;2022-10-19T08:33:42;5.73;;;1.47;;
16480;SDS011;44634;54.110;12.138;2022-10-19T08:36:10;1.80;;;0.90;;
16480;SDS011;44634;54.110;12.138;2022-10-19T08:38:39;2.67;;;1.20;;
16480;SDS011;44634;54.110;12.138;2022-10-19T08:47:08;1.10;;;1.00;;
16480;SDS011;44634;54.110;12.138;2022-10-19T08:49:49;4.20;;;1.90;;
16480;SDS011;44634;54.110;12.138;2022-10-19T08:52:18;1.33;;;1.20;;
16480;SDS011;44634;54.110;12.138;2022-10-19T08:54:48;3.50;;;0.90;;
16480;SDS011;44634;54.110;12.138;2022-10-19T08:57:27;1.53;;;1.10;;
16480;SDS011;44634;54.110;12.138;2022-10-19T09:00:06;7.63;;;1.40;;
16480;SDS011;44634;54.110;12.138;2022-10-19T09:02:42;9.83;;;5.87;;
16480;SDS011;44634;54.110;12.138;2022-10-19T09:05:23;6.10;;;5.50;;
16480;SDS011;44634;54.110;12.138;2022-10-19T09:08:02;1.27;;;1.23;;
16480;SDS011;44634;54.110;12.138;2022-10-19T09:10:32;1.37;;;0.97;;
16480;SDS011;44634;54.110;12.138;2022-10-19T09:13:06;2.07;;;0.87;;
16480;SDS011;44634;54.110;12.138;2022-10-19T09:15:42;4.50;;;1.10;;
16480;SDS011;44634;54.110;12.138;2022-10-19T09:18:13;1.10;;;1.00;;
16480;SDS011;44634;54.110;12.138;2022-10-19T09:20:45;3.57;;;1.17;;
16480;SDS011;44634;54.110;12.138;2022-10-19T09:23:19;4.47;;;3.73;;
16480;SDS011;44634;54.110;12.138;2022-10-19T09:25:48;4.03;;;3.43;;
16480;SDS011;44634;54.110;12.138;2022-10-19T09:28:22;2.33;;;2.23;;
16480;SDS011;44634;54.110;12.138;2022-10-19T09:31:09;4.27;;;3.87;;
16480;SDS011;44634;54.110;12.138;2022-10-19T09:33:41;2.00;;;1.10;;
16480;SDS011;44634;54.110;12.138;2022-10-19T09:36:13;3.23;;;0.90;;
16480;SDS011;44634;54.110;12.138;2022-10-19T09:38:53;3.37;;;1.13;;
16480;SDS011;44634;54.110;12.138;2022-10-19T09:41:20;1.43;;;0.90;;
16480;SDS011;44634;54.110;12.138;2022-10-19T09:43:52;0.80;;;0.80;;
16480;SDS011;44634;54.110;12.138;2022-10-19T09:46:25;3.20;;;1.13;;
16480;SDS011;44634;54.110;12.138;2022-10-19T09:49:04;2.00;;;0.80;;
16480;SDS011;44634;54.110;12.138;2022-10-19T09:51:38;2.43;;;1.10;;
16480;SDS011;44634;54.110;12.138;2022-10-19T09:54:24;1.47;;;0.90;;
16480;SDS011;44634;54.110;12.138;2022-10-19T09:56:57;1.87;;;0.90;;
16480;SDS011;44634;54.110;12.138;2022-10-19T09:59:29;4.30;;;0.80;;
16480;SDS011;44634;54.110;12.138;2022-10-19T10:02:02;0.70;;;0.70;;
16480;SDS011;44634;54.110;12.138;2022-10-19T10:04:40;2.00;;;0.93;;
16480;SDS011;44634;54.110;12.138;2022-10-19T10:07:09;0.60;;;0.60;;
16480;SDS011;44634;54.110;12.138;2022-10-19T10:09:42;0.70;;;0.70;;
16480;SDS011;44634;54.110;12.138;2022-10-19T10:12:12;0.50;;;0.50;;
16480;SDS011;44634;54.110;12.138;2022-10-19T10:14:43;1.17;;;1.17;;
16480;SDS011;44634;54.110;12.138;2022-10-19T10:17:13;1.67;;;0.87;;
16480;SDS011;44634;54.110;12.138;2022-10-19T10:19:50;2.90;;;0.60;;
16480;SDS011;44634;54.110;12.138;2022-10-19T10:22:30;1.77;;;0.97;;
16480;SDS011;44634;54.110;12.138;2022-10-19T10:24:59;2.27;;;1.00;;
16480;SDS011;44634;54.110;12.138;2022-10-19T10:27:30;1.07;;;0.80;;
16480;SDS011;44634;54.110;12.138;2022-10-19T10:30:04;1.80;;;0.90;;
16480;SDS011;44634;54.110;12.138;2022-10-19T10:32:35;0.67;;;0.67;;
16480;SDS011;44634;54.110;12.138;2022-10-19T10:35:05;0.53;;;0.50;;
16480;SDS011;44634;54.110;12.138;2022-10-19T10:37:41;1.00;;;1.00;;
16480;SDS011;44634;54.110;12.138;2022-10-19T10:40:15;0.60;;;0.60;;
16480;SDS011;44634;54.110;12.138;2022-10-19T10:42:49;0.77;;;0.70;;
16480;SDS011;44634;54.110;12.138;2022-10-19T10:45:23;0.83;;;0.60;;
16480;SDS011;44634;54.110;12.138;2022-10-19T10:47:55;1.70;;;0.97;;
16480;SDS011;44634;54.110;12.138;2022-10-19T10:50:25;1.80;;;1.00;;
16480;SDS011;44634;54.110;12.138;2022-10-19T10:52:59;2.57;;;1.20;;
16480;SDS011;44634;54.110;12.138;2022-10-19T10:55:28;1.53;;;1.00;;
16480;SDS011;44634;54.110;12.138;2022-10-19T10:58:05;2.70;;;1.00;;
16480;SDS011;44634;54.110;12.138;2022-10-19T11:00:45;0.73;;;0.73;;
16480;SDS011;44634;54.110;12.138;2022-10-19T11:03:16;3.70;;;0.97;;
16480;SDS011;44634;54.110;12.138;2022-10-19T11:05:50;1.20;;;1.20;;
16480;SDS011;44634;54.110;12.138;2022-10-19T11:08:23;1.07;;;1.07;;
16480;SDS011;44634;54.110;12.138;2022-10-19T11:10:59;2.00;;;1.20;;
16480;SDS011;44634;54.110;12.138;2022-10-19T11:13:35;0.83;;;0.80;;
16480;SDS011;44634;54.110;12.138;2022-10-19T11:16:11;0.83;;;0.80;;
16480;SDS011;44634;54.110;12.138;2022-10-19T11:18:42;1.60;;;1.03;;
16480;SDS011;44634;54.110;12.138;2022-10-19T11:21:14;0.90;;;0.70;;
16480;SDS011;44634;54.110;12.138;2022-10-19T11:23:50;1.00;;;0.87;;
16480;SDS011;44634;54.110;12.138;2022-10-19T11:26:28;3.80;;;1.20;;
16480;SDS011;44634;54.110;12.138;2022-10-19T11:29:11;2.57;;;0.80;;
16480;SDS011;44634;54.110;12.138;2022-10-19T11:31:54;3.30;;;1.00;;
16480;SDS011;44634;54.110;12.138;2022-10-19T11:34:36;0.80;;;0.80;;
16480;SDS011;44634;54.110;12.138;2022-10-19T11:37:15;1.40;;;1.00;;
16480;SDS011;44634;54.110;12.138;2022-10-19T11:39:54;0.93;;;0.93;;
16480;SDS011;44634;54.110;12.138;2022-10-19T11:42:35;0.73;;;0.73;;
16480;SDS011;44634;54.110;12.138;2022-10-19T15:09:19;0.93;;;0.87;;
16480;SDS011;44634;54.110;12.138;2022-10-19T15:12:13;0.77;;;0.77;;
16480;SDS011;44634;54.110;12.138;2022-10-19T15:14:43;1.33;;;0.90;;
16480;SDS011;44634;54.110;12.138;2022-10-19T15:17:23;1.00;;;0.90;;
16480;SDS011;44634;54.110;12.138;2022-10-19T15:19:52;1.33;;;0.80;;
16480;SDS011;44634;54.110;12.138;2022-10-19T15:22:36;0.90;;;0.90;;
16480;SDS011;44634;54.110;12.138;2022-10-19T15:25:22;0.90;;;0.90;;
16480;SDS011;44634;54.110;12.138;2022-10-19T15:27:53;0.93;;;0.60;;
16480;SDS011;44634;54.110;12.138;2022-10-19T15:30:24;1.00;;;1.00;;
16480;SDS011;44634;54.110;12.138;2022-10-19T15:32:56;2.20;;;0.80;;
16480;SDS011;44634;54.110;12.138;2022-10-19T15:35:36;1.77;;;0.80;;
16480;SDS011;44634;54.110;12.138;2022-10-19T15:38:06;0.80;;;0.80;;
16480;SDS011;44634;54.110;12.138;2022-10-19T15:40:42;6.87;;;6.17;;
16480;SDS011;44634;54.110;12.138;2022-10-19T15:46:04;0.97;;;0.97;;
16480;SDS011;44634;54.110;12.138;2022-10-19T15:48:42;0.67;;;0.67;;
16480;SDS011;44634;54.110;12.138;2022-10-19T15:54:05;1.23;;;1.13;;
16480;SDS011;44634;54.110;12.138;2022-10-19T15:56:35;0.87;;;0.87;;
16480;SDS011;44634;54.110;12.138;2022-10-19T15:59:08;1.03;;;1.00;;
16480;SDS011;44634;54.110;12.138;2022-10-19T16:01:38;1.30;;;1.20;;
16480;SDS011;44634;54.110;12.138;2022-10-19T16:04:06;1.10;;;0.93;;
16480;SDS011;44634;54.110;12.138;2022-10-19T16:06:35;1.53;;;0.80;;
16480;SDS011;44634;54.110;12.138;2022-10-19T16:09:05;4.07;;;1.40;;
16480;SDS011;44634;54.110;12.138;2022-10-19T16:11:34;1.90;;;0.90;;
16480;SDS011;44634;54.110;12.138;2022-10-19T16:14:02;3.10;;;1.13;;
16480;SDS011;44634;54.110;12.138;2022-10-19T16:16:30;1.20;;;1.00;;
16480;SDS011;44634;54.110;12.138;2022-10-19T16:18:59;1.43;;;1.20;;
16480;SDS011;44634;54.110;12.138;2022-10-19T16:21:28;3.20;;;1.50;;
16480;SDS011;44634;54.110;12.138;2022-10-19T16:23:58;3.27;;;2.00;;
16480;SDS011;44634;54.110;12.138;2022-10-19T16:26:26;2.23;;;2.03;;
16480;SDS011;44634;54.110;12.138;2022-10-19T16:28:55;5.37;;;2.43;;
16480;SDS011;44634;54.110;12.138;2022-10-19T16:31:23;2.90;;;2.10;;
16480;SDS011;44634;54.110;12.138;2022-10-19T16:33:51;5.03;;;3.00;;
16480;SDS011;44634;54.110;12.138;2022-10-19T16:36:19;3.20;;;1.83;;
16480;SDS011;44634;54.110;12.138;2022-10-19T16:38:46;2.27;;;1.70;;
16480;SDS011;44634;54.110;12.138;2022-10-19T16:41:15;2.93;;;1.73;;
16480;SDS011;44634;54.110;12.138;2022-10-19T16:43:42;3.60;;;1.67;;
16480;SDS011;44634;54.110;12.138;2022-10-19T16:46:11;2.93;;;1.33;;
16480;SDS011;44634;54.110;12.138;2022-10-19T16:48:39;3.60;;;1.57;;
16480;SDS011;44634;54.110;12.138;2022-10-19T16:51:26;1.33;;;1.20;;
16480;SDS011;44634;54.110;12.138;2022-10-19T16:53:59;7.43;;;1.73;;
16480;SDS011;44634;54.110;12.138;2022-10-19T16:56:28;1.30;;;1.30;;
16480;SDS011;44634;54.110;12.138;2022-10-19T16:58:57;1.70;;;1.43;;
16480;SDS011;44634;54.110;12.138;2022-10-19T17:01:28;1.63;;;1.20;;
16480;SDS011;44634;54.110;12.138;2022-10-19T17:03:56;1.43;;;0.87;;
16480;SDS011;44634;54.110;12.138;2022-10-19T17:06:25;6.63;;;1.40;;
16480;SDS011;44634;54.110;12.138;2022-10-19T17:08:54;2.23;;;1.70;;
16480;SDS011;44634;54.110;12.138;2022-10-19T17:11:42;3.77;;;2.53;;
16480;SDS011;44634;54.110;12.138;2022-10-19T17:14:10;4.03;;;3.30;;
16480;SDS011;44634;54.110;12.138;2022-10-19T17:16:40;1.80;;;1.57;;
16480;SDS011;44634;54.110;12.138;2022-10-19T17:19:08;4.83;;;2.13;;
16480;SDS011;44634;54.110;12.138;2022-10-19T17:21:37;4.73;;;3.50;;
16480;SDS011;44634;54.110;12.138;2022-10-19T17:24:11;4.43;;;1.60;;
16480;SDS011;44634;54.110;12.138;2022-10-19T17:26:46;2.57;;;1.50;;
16480;SDS011;44634;54.110;12.138;2022-10-19T17:29:15;1.80;;;1.70;;
16480;SDS011;44634;54.110;12.138;2022-10-19T17:31:45;2.50;;;2.30;;
16480;SDS011;44634;54.110;12.138;2022-10-19T17:34:13;2.93;;;1.90;;
16480;SDS011;44634;54.110;12.138;2022-10-19T17:36:42;2.37;;;1.93;;
16480;SDS011;44634;54.110;12.138;2022-10-19T17:39:12;4.90;;;2.40;;
16480;SDS011;44634;54.110;12.138;2022-10-19T17:41:42;2.13;;;2.03;;
16480;SDS011;44634;54.110;12.138;2022-10-19T17:44:11;2.87;;;2.17;;
16480;SDS011;44634;54.110;12.138;2022-10-19T17:46:38;2.93;;;2.73;;
16480;SDS011;44634;54.110;12.138;2022-10-19T17:49:08;5.00;;;4.33;;
16480;SDS011;44634;54.110;12.138;2022-10-19T17:51:36;6.60;;;5.90;;
16480;SDS011;44634;54.110;12.138;2022-10-19T17:54:04;9.10;;;6.73;;
16480;SDS011;44634;54.110;12.138;2022-10-19T17:56:34;2.90;;;2.70;;
16480;SDS011;44634;54.110;12.138;2022-10-19T17:59:03;3.30;;;3.00;;
16480;SDS011;44634;54.110;12.138;2022-10-19T18:01:33;5.13;;;3.30;;
16480;SDS011;44634;54.110;12.138;2022-10-19T18:04:01;3.13;;;2.90;;
16480;SDS011;44634;54.110;12.138;2022-10-19T18:06:32;3.33;;;3.03;;
16480;SDS011;44634;54.110;12.138;2022-10-19T18:09:01;2.40;;;2.20;;
16480;SDS011;44634;54.110;12.138;2022-10-19T18:11:31;3.47;;;2.37;;
16480;SDS011;44634;54.110;12.138;2022-10-19T18:14:02;7.60;;;5.33;;
16480;SDS011;44634;54.110;12.138;2022-10-19T18:16:32;13.27;;;9.97;;
16480;SDS011;44634;54.110;12.138;2022-10-19T18:19:01;4.80;;;3.90;;
16480;SDS011;44634;54.110;12.138;2022-10-19T18:21:33;4.43;;;4.03;;
16480;SDS011;44634;54.110;12.138;2022-10-19T18:24:03;4.57;;;3.80;;
16480;SDS011;44634;54.110;12.138;2022-10-19T18:26:37;3.27;;;2.47;;
16480;SDS011;44634;54.110;12.138;2022-10-19T18:29:08;5.03;;;3.00;;
16480;SDS011;44634;54.110;12.138;2022-10-19T18:31:38;4.20;;;2.70;;